createdAt,value
2019-04-19T00:00:15.917Z,4.67
2019-04-19T00:01:14.115Z,4.70
2019-04-19T00:02:14.219Z,4.65
2019-04-19T00:03:17.651Z,4.62
2019-04-19T00:04:16.721Z,4.54
2019-04-19T00:05:13.147Z,4.55
2019-04-19T00:06:20.577Z,4.50
2019-04-19T00:07:18.630Z,4.45
2019-04-19T00:08:26.279Z,4.50
2019-04-19T00:09:26.288Z,4.62
2019-04-19T00:10:28.172Z,4.70
2019-04-19T00:11:21.176Z,4.84
2019-04-19T00:12:25.068Z,4.91
2019-04-19T00:13:11.585Z,4.89
2019-04-19T00:14:12.634Z,5.00
2019-04-19T00:15:11.793Z,4.88
2019-04-19T00:16:11.479Z,4.86
2019-04-19T00:17:14.796Z,4.70
2019-04-19T00:18:15.377Z,4.63
2019-04-19T00:19:34.195Z,4.55
2019-04-19T00:20:32.688Z,4.63
2019-04-19T00:21:30.389Z,4.63
2019-04-19T00:22:27.415Z,4.50
2019-04-19T00:23:21.429Z,4.40
2019-04-19T00:24:12.124Z,4.36
2019-04-19T00:25:11.407Z,4.27
2019-04-19T00:26:11.065Z,4.11
2019-04-19T00:27:11.808Z,4.05
2019-04-19T00:28:12.986Z,4.09
2019-04-19T00:29:20.188Z,4.26
2019-04-19T00:30:24.136Z,4.20
2019-04-19T00:31:20.271Z,4.04
2019-04-19T00:32:24.197Z,3.94
2019-04-19T00:33:21.213Z,4.05
2019-04-19T00:34:10.766Z,4.24
2019-04-19T00:35:11.630Z,4.40
2019-04-19T00:36:13.092Z,4.40
2019-04-19T00:37:11.941Z,4.45
2019-04-19T00:38:14.497Z,4.41
2019-04-19T00:39:23.722Z,4.30
2019-04-19T00:40:28.456Z,4.41
2019-04-19T00:41:28.168Z,4.42
2019-04-19T00:43:32.555Z,4.58
2019-04-19T00:44:45.563Z,4.45
2019-04-19T00:45:26.466Z,4.47
2019-04-19T00:46:24.785Z,4.50
2019-04-19T00:47:30.239Z,4.59
2019-04-19T00:48:29.792Z,4.54
2019-04-19T00:49:21.960Z,4.54
2019-04-19T00:50:18.533Z,4.42
2019-04-19T00:51:20.624Z,4.48
2019-04-19T00:52:31.484Z,4.51
2019-04-19T00:53:58.752Z,4.55
2019-04-19T00:54:18.037Z,4.41
2019-04-19T00:55:16.582Z,4.54
2019-04-19T00:56:18.117Z,4.51
2019-04-19T00:57:20.439Z,4.50
2019-04-19T00:58:16.401Z,4.47
2019-04-19T00:59:13.273Z,4.59
2019-04-19T01:00:12.927Z,4.50
2019-04-19T01:01:13.476Z,4.41
2019-04-19T01:02:15.108Z,4.15
2019-04-19T01:03:11.826Z,4.08
2019-04-19T01:04:14.583Z,4.15
2019-04-19T01:05:13.680Z,4.32
2019-04-19T01:06:14.264Z,4.23
2019-04-19T01:07:13.331Z,4.18
2019-04-19T01:08:14.019Z,4.30
2019-04-19T01:09:25.657Z,4.12
2019-04-19T01:10:24.810Z,3.97
2019-04-19T01:11:25.891Z,3.98
2019-04-19T01:12:20.682Z,4.04
2019-04-19T01:13:18.114Z,3.90
2019-04-19T01:14:21.572Z,3.84
2019-04-19T01:15:18.758Z,3.75
2019-04-19T01:16:23.136Z,3.69
2019-04-19T01:17:23.050Z,3.58
2019-04-19T01:18:21.388Z,3.73
2019-04-19T01:19:12.558Z,3.70
2019-04-19T01:20:11.082Z,3.52
2019-04-19T01:21:09.174Z,3.57
2019-04-19T01:22:13.786Z,3.70
2019-04-19T01:23:12.247Z,3.76
2019-04-19T01:24:09.719Z,3.80
2019-04-19T01:25:15.712Z,3.80
2019-04-19T01:26:12.253Z,3.79
2019-04-19T01:27:08.880Z,3.60
2019-04-19T01:28:13.964Z,3.57
2019-04-19T01:29:12.065Z,3.60
2019-04-19T01:30:08.487Z,3.50
2019-04-19T01:31:13.532Z,3.55
2019-04-19T01:32:13.292Z,3.47
2019-04-19T01:33:08.601Z,3.43
2019-04-19T01:34:13.866Z,3.43
2019-04-19T01:35:12.300Z,3.43
2019-04-19T01:36:08.342Z,3.24
2019-04-19T01:37:11.285Z,3.42
2019-04-19T01:38:10.120Z,3.43
2019-04-19T01:39:22.179Z,3.48
2019-04-19T01:40:21.295Z,3.58
2019-04-19T01:41:20.793Z,3.60
2019-04-19T01:42:26.376Z,3.52
2019-04-19T01:43:27.820Z,3.42
2019-04-19T01:44:27.737Z,3.42
2019-04-19T01:45:20.035Z,3.45
2019-04-19T01:46:24.236Z,3.55
2019-04-19T01:47:30.546Z,3.51
2019-04-19T01:48:29.708Z,3.54
2019-04-19T01:49:19.261Z,3.60
2019-04-19T01:50:17.064Z,3.75
2019-04-19T01:51:20.331Z,3.79
2019-04-19T01:52:36.740Z,3.66
2019-04-19T01:53:24.330Z,3.57
2019-04-19T01:54:28.332Z,3.43
2019-04-19T01:55:16.825Z,3.58
2019-04-19T01:56:12.150Z,3.55
2019-04-19T01:57:10.728Z,3.58
2019-04-19T01:58:13.986Z,3.54
2019-04-19T01:59:07.847Z,3.65
2019-04-19T02:00:10.332Z,3.60
2019-04-19T02:01:12.494Z,3.52
2019-04-19T02:02:12.624Z,3.45
2019-04-19T02:03:09.176Z,3.40
2019-04-19T02:04:12.178Z,3.42
2019-04-19T02:05:12.303Z,3.40
2019-04-19T02:06:11.131Z,3.28
2019-04-19T02:07:13.473Z,3.28
2019-04-19T02:08:10.181Z,3.39
2019-04-19T02:09:07.018Z,3.45
2019-04-19T02:10:18.615Z,3.31
2019-04-19T02:11:18.795Z,3.32
2019-04-19T02:12:22.482Z,3.21
2019-04-19T02:13:16.999Z,3.31
2019-04-19T02:14:13.579Z,3.29
2019-04-19T02:15:11.700Z,3.24
2019-04-19T02:16:12.920Z,3.23
2019-04-19T02:17:10.285Z,3.14
2019-04-19T02:18:07.163Z,2.97
2019-04-19T02:19:12.360Z,2.92
2019-04-19T02:20:10.040Z,2.84
2019-04-19T02:21:06.773Z,2.84
2019-04-19T02:22:13.044Z,2.85
2019-04-19T02:23:10.889Z,2.90
2019-04-19T02:24:07.153Z,2.85
2019-04-19T02:25:12.666Z,2.81
2019-04-19T02:26:12.172Z,2.84
2019-04-19T02:27:09.412Z,2.71
2019-04-19T02:28:08.960Z,2.71
2019-04-19T02:29:10.936Z,2.49
2019-04-19T02:30:15.839Z,2.61
2019-04-19T02:31:27.660Z,2.82
2019-04-19T02:32:24.498Z,2.81
2019-04-19T02:33:29.387Z,2.75
2019-04-19T02:34:37.116Z,2.67
2019-04-19T02:35:29.140Z,2.41
2019-04-19T02:36:35.667Z,2.45
2019-04-19T02:37:47.450Z,2.61
2019-04-19T02:38:36.399Z,2.66
2019-04-19T02:39:38.707Z,2.63
2019-04-19T02:41:34.812Z,2.53
2019-04-19T02:42:40.699Z,2.63
2019-04-19T02:43:36.179Z,2.63
2019-04-19T02:44:41.312Z,2.59
2019-04-19T02:45:33.017Z,2.60
2019-04-19T02:46:50.182Z,2.72
2019-04-19T02:47:40.394Z,2.82
2019-04-19T02:48:39.218Z,2.72
2019-04-19T02:49:35.934Z,2.61
2019-04-19T02:50:53.195Z,2.59
2019-04-19T02:51:33.124Z,2.42
2019-04-19T02:53:29.933Z,2.45
2019-04-19T02:54:34.726Z,2.42
2019-04-19T02:55:29.974Z,2.34
2019-04-19T02:56:44.532Z,2.28
2019-04-19T02:57:37.152Z,2.46
2019-04-19T02:58:48.744Z,2.45
2019-04-19T02:59:41.432Z,2.49
2019-04-19T03:00:37.785Z,2.53
2019-04-19T03:01:40.162Z,2.66
2019-04-19T03:02:42.388Z,2.64
2019-04-19T03:05:27.376Z,2.43
2019-04-19T03:06:18.770Z,2.34
2019-04-19T03:07:07.491Z,2.31
2019-04-19T03:08:04.545Z,2.36
2019-04-19T03:09:05.089Z,2.46
2019-04-19T03:10:11.063Z,2.54
2019-04-19T03:11:11.820Z,2.67
2019-04-19T03:12:22.961Z,2.69
2019-04-19T03:13:21.695Z,2.61
2019-04-19T03:14:18.225Z,2.49
2019-04-19T03:15:13.859Z,2.36
2019-04-19T03:16:29.558Z,2.31
2019-04-19T03:17:23.274Z,2.31
2019-04-19T03:19:13.420Z,2.34
2019-04-19T03:20:24.690Z,2.17
2019-04-19T03:21:20.701Z,2.27
2019-04-19T03:22:23.249Z,2.16
2019-04-19T03:23:17.883Z,2.09
2019-04-19T03:24:21.065Z,2.03
2019-04-19T03:25:18.325Z,2.09
2019-04-19T03:26:19.601Z,2.03
2019-04-19T03:27:13.703Z,2.00
2019-04-19T03:28:17.359Z,1.98
2019-04-19T03:29:14.801Z,1.99
2019-04-19T03:30:27.227Z,1.98
2019-04-19T03:31:34.530Z,1.99
2019-04-19T03:32:55.712Z,1.99
2019-04-19T03:33:29.037Z,1.95
2019-04-19T03:34:36.805Z,2.10
2019-04-19T03:35:14.420Z,2.28
2019-04-19T03:36:22.019Z,2.46
2019-04-19T03:37:27.994Z,2.53
2019-04-19T03:38:28.304Z,2.45
2019-04-19T03:39:23.161Z,2.77
2019-04-19T03:40:23.454Z,2.81
2019-04-19T03:41:29.279Z,2.69
2019-04-19T03:42:21.559Z,2.81
2019-04-19T03:43:26.533Z,2.82
2019-04-19T03:44:23.382Z,2.60
2019-04-19T03:45:18.052Z,2.66
2019-04-19T03:46:45.982Z,2.67
2019-04-19T03:47:24.397Z,2.72
2019-04-19T03:48:25.889Z,2.74
2019-04-19T03:49:30.648Z,2.63
2019-04-19T03:50:20.364Z,2.72
2019-04-19T03:51:18.390Z,2.56
2019-04-19T03:52:20.360Z,2.56
2019-04-19T03:53:20.292Z,2.45
2019-04-19T03:54:17.562Z,2.38
2019-04-19T03:55:21.418Z,2.42
2019-04-19T03:56:27.866Z,2.31
2019-04-19T03:57:15.509Z,2.14
2019-04-19T03:58:07.903Z,2.24
2019-04-19T03:59:02.836Z,2.24
2019-04-19T04:00:02.735Z,2.23
2019-04-19T04:01:02.581Z,2.24
2019-04-19T04:02:02.960Z,2.20
2019-04-19T04:03:10.390Z,2.12
2019-04-19T04:04:08.758Z,2.03
2019-04-19T04:05:07.521Z,1.98
2019-04-19T04:06:02.103Z,1.93
2019-04-19T04:07:07.711Z,1.98
2019-04-19T04:08:09.142Z,1.93
2019-04-19T04:09:05.836Z,2.07
2019-04-19T04:10:04.189Z,2.25
2019-04-19T04:11:09.596Z,2.34
2019-04-19T04:12:18.585Z,2.34
2019-04-19T04:13:16.930Z,2.30
2019-04-19T04:14:18.199Z,2.28
2019-04-19T04:15:14.544Z,2.10
2019-04-19T04:16:11.599Z,2.09
2019-04-19T04:17:02.078Z,2.14
2019-04-19T04:18:02.720Z,2.05
2019-04-19T04:19:01.719Z,1.98
2019-04-19T04:20:01.510Z,1.99
2019-04-19T04:21:02.681Z,2.05
2019-04-19T04:22:02.762Z,1.99
2019-04-19T04:23:07.315Z,1.87
2019-04-19T04:24:13.185Z,1.83
2019-04-19T04:25:11.254Z,1.77
2019-04-19T04:26:08.280Z,1.73
2019-04-19T04:27:09.766Z,1.77
2019-04-19T04:28:10.441Z,1.76
2019-04-19T04:29:07.732Z,1.77
2019-04-19T04:30:13.033Z,1.68
2019-04-19T04:31:13.397Z,1.68
2019-04-19T04:32:11.465Z,1.81
2019-04-19T04:33:10.393Z,1.93
2019-04-19T04:34:10.111Z,1.91
2019-04-19T04:35:19.609Z,2.02
2019-04-19T04:36:23.499Z,2.05
2019-04-19T04:37:16.540Z,1.99
2019-04-19T04:38:09.238Z,2.05
2019-04-19T04:39:00.864Z,2.02
2019-04-19T04:40:02.167Z,1.99
2019-04-19T04:41:07.864Z,2.18
2019-04-19T04:42:11.299Z,2.30
2019-04-19T04:43:15.044Z,2.45
2019-04-19T04:44:20.226Z,2.57
2019-04-19T04:45:25.689Z,2.67
2019-04-19T04:46:21.021Z,2.90
2019-04-19T04:47:19.313Z,3.06
2019-04-19T04:48:20.302Z,3.15
2019-04-19T04:49:30.613Z,3.08
2019-04-19T04:50:25.776Z,3.17
2019-04-19T04:51:19.598Z,3.14
2019-04-19T04:52:09.702Z,3.28
2019-04-19T04:53:01.515Z,3.10
2019-04-19T04:54:00.120Z,3.15
2019-04-19T04:55:00.987Z,3.11
2019-04-19T04:56:02.833Z,3.11
2019-04-19T04:57:08.643Z,3.15
2019-04-19T04:58:03.682Z,3.23
2019-04-19T04:59:09.858Z,3.21
2019-04-19T05:00:02.714Z,3.24
2019-04-19T05:01:05.822Z,3.29
2019-04-19T05:02:08.405Z,3.33
2019-04-19T05:03:13.740Z,3.43
2019-04-19T05:04:15.198Z,3.69
2019-04-19T05:05:21.948Z,4.05
2019-04-19T05:06:17.700Z,4.36
2019-04-19T05:07:24.398Z,4.40
2019-04-19T05:08:21.535Z,4.52
2019-04-19T05:09:23.863Z,4.60
2019-04-19T05:10:14.763Z,4.62
2019-04-19T05:11:16.796Z,4.65
2019-04-19T05:12:18.244Z,4.55
2019-04-19T05:13:20.017Z,4.50
2019-04-19T05:14:17.612Z,4.36
2019-04-19T05:15:20.045Z,4.42
2019-04-19T05:16:27.108Z,4.59
2019-04-19T05:17:33.464Z,4.78
2019-04-19T05:18:21.202Z,4.96
2019-04-19T05:19:20.969Z,5.00
2019-04-19T05:20:18.262Z,5.10
2019-04-19T05:21:20.193Z,4.92
2019-04-19T05:22:15.786Z,4.77
2019-04-19T05:23:14.223Z,4.60
2019-04-19T05:24:21.118Z,4.65
2019-04-19T05:25:27.304Z,4.58
2019-04-19T05:26:29.249Z,4.60
2019-04-19T05:27:20.520Z,4.63
2019-04-19T05:28:20.229Z,4.65
2019-04-19T05:29:10.738Z,4.63
2019-04-19T05:29:59.878Z,4.58
2019-04-19T05:31:03.546Z,4.63
2019-04-19T05:32:09.275Z,4.63
2019-04-19T05:33:09.899Z,4.59
2019-04-19T05:34:21.676Z,4.52
2019-04-19T05:35:12.405Z,4.51
2019-04-19T05:36:18.323Z,4.58
2019-04-19T05:37:14.064Z,4.51
2019-04-19T05:38:13.667Z,4.63
2019-04-19T05:39:17.428Z,4.65
2019-04-19T05:40:16.595Z,4.66
2019-04-19T05:41:08.198Z,4.67
2019-04-19T05:42:10.725Z,4.77
2019-04-19T05:43:33.188Z,4.80
2019-04-19T05:44:23.388Z,4.89
2019-04-19T05:46:21.497Z,5.04
2019-04-19T05:47:15.600Z,5.15
2019-04-19T05:48:08.192Z,5.15
2019-04-19T05:49:17.620Z,5.25
2019-04-19T05:50:23.920Z,5.28
2019-04-19T05:51:19.556Z,5.38
2019-04-19T05:52:19.085Z,5.35
2019-04-19T05:53:10.224Z,5.45
2019-04-19T05:54:04.802Z,5.63
2019-04-19T05:54:58.251Z,5.75
2019-04-19T05:55:58.641Z,5.85
2019-04-19T05:57:09.779Z,5.85
2019-04-19T05:59:08.259Z,6.64
2019-04-19T06:00:03.523Z,7.31
2019-04-19T06:01:09.141Z,7.80
2019-04-19T06:02:10.355Z,7.93
2019-04-19T06:03:09.265Z,7.92
2019-04-19T06:04:19.791Z,7.86
2019-04-19T06:05:36.456Z,7.95
2019-04-19T06:06:19.975Z,8.04
2019-04-19T06:07:18.871Z,8.10
2019-04-19T06:08:07.798Z,8.01
2019-04-19T06:08:58.268Z,7.92
2019-04-19T06:09:58.095Z,7.82
2019-04-19T06:11:00.955Z,7.89
2019-04-19T06:11:58.101Z,7.93
2019-04-19T06:13:02.830Z,8.04
2019-04-19T06:14:20.213Z,7.92
2019-04-19T06:15:19.055Z,7.98
2019-04-19T06:16:16.564Z,7.98
2019-04-19T06:17:08.831Z,8.26
2019-04-19T06:18:13.294Z,8.43
2019-04-19T06:19:17.030Z,8.44
2019-04-19T06:20:16.304Z,8.37
2019-04-19T06:21:19.655Z,8.34
2019-04-19T06:22:08.993Z,8.30
2019-04-19T06:23:13.517Z,8.40
2019-04-19T06:24:17.979Z,8.37
2019-04-19T06:25:12.221Z,8.45
2019-04-19T06:26:49.360Z,8.56
2019-04-19T06:27:18.213Z,8.55
2019-04-19T06:28:26.038Z,8.63
2019-04-19T06:29:17.397Z,8.63
2019-04-19T06:30:20.344Z,8.66
2019-04-19T06:31:21.706Z,8.81
2019-04-19T06:32:23.757Z,8.91
2019-04-19T06:33:19.757Z,9.05
2019-04-19T06:34:17.650Z,9.08
2019-04-19T06:35:11.639Z,9.20
2019-04-19T06:36:00.872Z,9.23
2019-04-19T06:37:04.624Z,9.32
2019-04-19T06:37:56.871Z,9.38
2019-04-19T06:38:57.115Z,9.51
2019-04-19T06:40:06.078Z,9.48
2019-04-19T06:41:01.999Z,9.66
2019-04-19T06:42:02.666Z,10.09
2019-04-19T06:43:04.913Z,10.59
2019-04-19T06:44:08.993Z,10.91
2019-04-19T06:45:16.505Z,11.00
2019-04-19T06:46:10.596Z,11.04
2019-04-19T06:47:08.626Z,11.17
2019-04-19T06:48:04.830Z,11.06
2019-04-19T06:49:03.038Z,11.18
2019-04-19T06:49:57.209Z,11.19
2019-04-19T06:50:59.330Z,11.25
2019-04-19T06:52:05.708Z,11.39
2019-04-19T06:52:55.529Z,11.51
2019-04-19T06:54:02.498Z,11.79
2019-04-19T06:54:55.801Z,12.60
2019-04-19T06:56:07.982Z,13.84
2019-04-19T06:57:08.596Z,15.28
2019-04-19T06:58:04.854Z,16.21
2019-04-19T06:59:08.148Z,16.63
2019-04-19T07:00:10.483Z,17.44
2019-04-19T07:01:10.725Z,18.15
2019-04-19T07:01:58.764Z,18.81
2019-04-19T07:02:56.208Z,19.74
2019-04-19T07:03:55.820Z,20.33
2019-04-19T07:05:12.464Z,20.91
2019-04-19T07:06:14.551Z,21.19
2019-04-19T07:07:16.496Z,21.67
2019-04-19T07:08:41.002Z,21.56
2019-04-19T07:09:21.292Z,22.09
2019-04-19T07:10:24.897Z,22.46
2019-04-19T07:11:16.402Z,22.90
2019-04-19T07:12:21.028Z,22.86
2019-04-19T07:13:10.838Z,23.12
2019-04-19T07:14:04.994Z,23.50
2019-04-19T07:15:23.777Z,23.88
2019-04-19T07:16:19.317Z,23.68
2019-04-19T07:17:10.818Z,23.75
2019-04-19T07:18:11.889Z,23.61
2019-04-19T07:19:15.508Z,23.85
2019-04-19T07:20:12.273Z,24.13
2019-04-19T07:21:16.442Z,24.25
2019-04-19T07:22:09.711Z,24.64
2019-04-19T07:23:06.863Z,24.96
2019-04-19T07:24:27.363Z,25.05
2019-04-19T07:25:20.136Z,25.20
2019-04-19T07:26:15.209Z,25.18
2019-04-19T07:27:12.401Z,25.32
2019-04-19T07:28:03.888Z,25.18
2019-04-19T07:28:55.669Z,25.25
2019-04-19T07:29:58.490Z,25.28
2019-04-19T07:30:59.094Z,25.73
2019-04-19T07:31:55.635Z,25.83
2019-04-19T07:33:02.462Z,25.54
2019-04-19T07:34:07.275Z,25.51
2019-04-19T07:35:10.491Z,25.76
2019-04-19T07:36:11.989Z,25.76
2019-04-19T07:37:14.666Z,25.60
2019-04-19T07:38:24.012Z,25.58
2019-04-19T07:39:17.041Z,25.28
2019-04-19T07:40:17.816Z,25.40
2019-04-19T07:42:20.298Z,24.50
2019-04-19T07:43:10.576Z,24.39
2019-04-19T07:44:09.013Z,24.83
2019-04-19T07:45:00.250Z,24.71
2019-04-19T07:46:15.287Z,25.15
2019-04-19T07:47:11.375Z,25.10
2019-04-19T07:48:00.789Z,25.58
2019-04-19T07:48:55.346Z,25.76
2019-04-19T07:50:03.970Z,26.15
2019-04-19T07:51:02.415Z,26.09
2019-04-19T07:52:04.597Z,26.60
2019-04-19T07:52:58.604Z,26.77
2019-04-19T07:53:55.281Z,26.72
2019-04-19T07:55:00.280Z,26.77
2019-04-19T07:56:07.880Z,26.54
2019-04-19T07:57:09.910Z,26.51
2019-04-19T07:58:38.248Z,26.18
2019-04-19T07:59:18.000Z,25.99
2019-04-19T08:00:18.535Z,25.97
2019-04-19T08:01:25.913Z,26.15
2019-04-19T08:02:26.641Z,26.37
2019-04-19T08:03:27.931Z,26.62
2019-04-19T08:06:21.367Z,26.18
2019-04-19T08:08:37.285Z,26.80
2019-04-19T08:10:18.928Z,27.59
2019-04-19T08:12:19.006Z,26.99
2019-04-19T08:13:31.641Z,27.04
2019-04-19T08:14:35.833Z,26.28
2019-04-19T08:18:26.132Z,24.57
2019-04-19T08:28:08.551Z,25.21
2019-04-19T08:29:07.241Z,25.50
2019-04-19T08:30:00.101Z,25.82
2019-04-19T08:30:58.331Z,25.70
2019-04-19T08:31:53.393Z,25.72
2019-04-19T08:32:53.543Z,25.95
2019-04-19T08:33:53.205Z,26.15
2019-04-19T08:34:58.579Z,26.12
2019-04-19T08:35:57.089Z,26.72
2019-04-19T08:36:59.432Z,26.75
2019-04-19T08:38:02.472Z,26.36
2019-04-19T08:39:13.942Z,25.91
2019-04-19T08:40:15.528Z,25.65
2019-04-19T08:41:08.343Z,25.23
2019-04-19T08:42:28.593Z,25.33
2019-04-19T08:43:13.789Z,25.21
2019-04-19T08:44:11.414Z,25.32
2019-04-19T08:45:00.879Z,24.73
2019-04-19T08:45:53.122Z,24.57
2019-04-19T08:46:53.590Z,24.62
2019-04-19T08:48:02.630Z,24.68
2019-04-19T08:48:56.286Z,24.67
2019-04-19T08:49:53.355Z,24.49
2019-04-19T08:50:55.046Z,24.21
2019-04-19T08:51:53.749Z,23.87
2019-04-19T08:52:59.252Z,24.09
2019-04-19T08:54:10.368Z,24.43
2019-04-19T08:55:14.378Z,24.21
2019-04-19T08:56:08.051Z,24.42
2019-04-19T08:57:01.127Z,24.45
2019-04-19T08:58:00.005Z,25.06
2019-04-19T08:59:15.601Z,25.67
2019-04-19T09:00:17.238Z,25.92
2019-04-19T09:01:15.215Z,25.97
2019-04-19T09:02:12.542Z,26.65
2019-04-19T09:03:05.025Z,26.94
2019-04-19T09:04:13.623Z,27.21
2019-04-19T09:05:09.070Z,27.19
2019-04-19T09:06:49.888Z,26.63
2019-04-19T09:08:10.213Z,27.00
2019-04-19T09:09:08.285Z,26.72
2019-04-19T09:11:11.274Z,27.65
2019-04-19T09:12:10.524Z,28.11
2019-04-19T09:13:22.186Z,27.78
2019-04-19T09:14:10.866Z,26.95
2019-04-19T09:17:12.902Z,26.55
2019-04-19T09:18:35.055Z,26.69
2019-04-19T09:21:05.126Z,26.17
2019-04-19T09:23:26.075Z,26.29
2019-04-19T09:24:17.062Z,26.17
2019-04-19T09:26:25.436Z,26.87
2019-04-19T09:27:31.760Z,27.40
2019-04-19T09:28:30.956Z,26.75
2019-04-19T09:29:29.787Z,26.80
2019-04-19T09:30:31.954Z,26.65
2019-04-19T09:33:08.622Z,26.77
2019-04-19T09:34:03.860Z,27.24
2019-04-19T09:35:19.239Z,26.92
2019-04-19T09:37:23.926Z,26.50
2019-04-19T09:40:03.118Z,27.37
2019-04-19T09:41:17.512Z,27.63
2019-04-19T09:43:21.505Z,27.24
2019-04-19T09:44:05.729Z,27.60
2019-04-19T09:44:58.386Z,27.39
2019-04-19T09:48:25.206Z,27.13
2019-04-19T09:49:11.823Z,27.12
2019-04-19T09:55:03.585Z,27.07
2019-04-19T09:57:38.463Z,27.34
2019-04-19T10:00:24.910Z,27.62
2019-04-19T10:03:19.838Z,27.19
2019-04-19T10:08:47.872Z,27.57
2019-04-19T10:09:22.249Z,27.84
2019-04-19T10:11:19.039Z,27.41
2019-04-19T10:12:17.936Z,27.22
2019-04-19T10:13:19.508Z,27.17
2019-04-19T10:14:19.241Z,27.09
2019-04-19T10:15:18.052Z,26.95
2019-04-19T10:16:18.734Z,27.32
2019-04-19T10:17:18.299Z,27.41
2019-04-19T10:18:18.639Z,27.47
2019-04-19T10:20:56.617Z,27.67
2019-04-19T10:23:49.849Z,28.34
2019-04-19T10:24:51.333Z,28.41
2019-04-19T10:27:09.128Z,28.19
2019-04-19T10:28:01.320Z,27.70
2019-04-19T10:29:55.513Z,26.97
2019-04-19T10:31:09.274Z,27.04
2019-04-19T10:32:48.751Z,27.21
2019-04-19T10:33:53.481Z,26.60
2019-04-19T10:35:41.255Z,26.82
2019-04-19T10:36:40.577Z,27.10
2019-04-19T10:38:33.886Z,27.51
2019-04-19T10:39:34.049Z,27.44
2019-04-19T10:41:27.411Z,27.12
2019-04-19T10:42:27.302Z,26.82
2019-04-19T10:43:27.396Z,26.66
2019-04-19T10:44:27.080Z,26.48
2019-04-19T10:46:20.867Z,26.84
2019-04-19T10:47:21.294Z,26.52
2019-04-19T10:49:33.483Z,26.30
2019-04-19T10:52:10.266Z,26.47
2019-04-19T10:53:10.371Z,26.40
2019-04-19T10:54:10.619Z,26.09
2019-04-19T10:55:10.628Z,25.77
2019-04-19T10:56:09.924Z,26.15
2019-04-19T10:57:10.409Z,26.29
2019-04-19T10:58:09.782Z,26.73
2019-04-19T11:01:13.703Z,26.66
2019-04-19T11:02:13.829Z,26.84
2019-04-19T11:04:07.224Z,27.24
2019-04-19T11:05:07.163Z,27.24
2019-04-19T11:07:00.256Z,26.70
2019-04-19T11:07:59.345Z,26.76
2019-04-19T11:09:00.494Z,26.87
2019-04-19T11:10:00.291Z,27.03
2019-04-19T11:10:59.824Z,26.82
2019-04-19T11:12:54.535Z,26.94
2019-04-19T11:13:54.094Z,27.14
2019-04-19T11:15:56.224Z,27.72
2019-04-19T11:16:55.600Z,27.82
2019-04-19T11:18:49.745Z,27.57
2019-04-19T11:20:00.941Z,27.13
2019-04-19T11:21:41.797Z,27.18
2019-04-19T11:22:43.766Z,27.03
2019-04-19T11:24:36.171Z,27.65
2019-04-19T11:25:35.794Z,27.54
2019-04-19T11:27:31.018Z,26.75
2019-04-19T11:28:29.160Z,26.85
2019-04-19T11:29:29.573Z,26.95
2019-04-19T11:31:23.653Z,27.13
2019-04-19T11:32:22.422Z,26.80
2019-04-19T11:34:17.195Z,26.39
2019-04-19T11:35:17.387Z,25.83
2019-04-19T11:37:11.886Z,25.72
2019-04-19T11:38:09.000Z,25.76
2019-04-19T11:40:03.519Z,25.25
2019-04-19T11:41:03.134Z,25.21
2019-04-19T11:42:57.303Z,25.92
2019-04-19T11:43:56.230Z,25.73
2019-04-19T11:45:49.833Z,25.60
2019-04-19T11:46:49.971Z,25.51
2019-04-19T11:48:43.711Z,25.57
2019-04-19T11:49:44.362Z,25.69
2019-04-19T11:51:37.465Z,25.79
2019-04-19T11:52:37.728Z,25.85
2019-04-19T11:54:38.747Z,25.99
2019-04-19T11:55:38.359Z,25.91
2019-04-19T11:57:32.607Z,25.35
2019-04-19T11:58:34.014Z,25.51
2019-04-19T12:00:25.091Z,25.72
2019-04-19T12:02:49.705Z,25.55
2019-04-19T12:03:50.027Z,25.05
2019-04-19T12:04:48.861Z,25.06
2019-04-19T12:05:48.863Z,25.18
2019-04-19T12:06:48.269Z,25.24
2019-04-19T12:07:50.865Z,25.15
2019-04-19T12:08:49.670Z,25.14
2019-04-19T12:11:36.047Z,25.21
2019-04-19T12:12:35.033Z,25.45
2019-04-19T12:13:36.637Z,25.76
2019-04-19T12:14:34.629Z,26.21
2019-04-19T12:15:37.845Z,26.17
2019-04-19T12:18:28.384Z,26.26
2019-04-19T12:19:36.184Z,26.12
2019-04-19T12:21:20.914Z,26.09
2019-04-19T12:22:21.272Z,26.18
2019-04-19T12:24:14.984Z,25.83
2019-04-19T12:25:15.417Z,25.57
2019-04-19T12:26:13.711Z,25.13
2019-04-19T12:27:14.234Z,25.00
2019-04-19T12:28:15.347Z,24.95
